Containerships 6 — DABH — position and weather

sailwx.info

Track history (hours):
 
Tides and Currents Weather Stations Pressure Air Temp Water Temp Dewpoint Dewpoint Depression Visibility Wind Speed Wind Dir Waves Ship Positions

Containerships 6

Last reported at 2017-Oct-17 13:00 UTC. Time now 2017-Oct-17 13:26 UTC.
Position N 55°16' E 012°47'.

Length 155 m; beam 21.8 m; draft 8.9 m.

Type: Ship (hazmat cat A). MMSI: 211315096.

Date/timePositionNaut miles runAvg speedWind from/ knotsBaromVisibWave heightAir tempDewpointWater temp
2017-Oct-17 13:00N 55°16' E 012°47'713.7
2017-Oct-17 12:30N 55°21' E 012°38'714.1
2017-Oct-17 12:00N 55°28' E 012°40'611.3
2017-Oct-17 11:30N 55°33' E 012°42'4 8.2
2017-Oct-17 11:00N 55°37' E 012°42'510.2
2017-Oct-17 10:30N 55°42' E 012°41'815.4
2017-Oct-17 10:00N 55°50' E 012°41'917.2
2017-Oct-17 09:30N 55°59' E 012°40'713.8
2017-Oct-17 09:01N 56°05' E 012°35'816.9
2017-Oct-17 08:31N 56°10' E 012°23'2817.2
2017-Oct-17 06:55N 56°34' E 011°57'818.1
2017-Oct-17 06:29N 56°41' E 011°54'2218.7
2017-Oct-17 05:18N 57°02' E 011°41'1917.3
2017-Oct-17 04:14N 57°19' E 011°29'416.9
2017-Oct-17 04:00N 57°23' E 011°26'816.5
2017-Oct-17 03:30N 57°30' E 011°18'917.1
2017-Oct-17 03:00N 57°36' E 011°06'917.0
2017-Oct-17 02:28N 57°42' E 010°54'816.6
2017-Oct-17 01:59N 57°47' E 010°42'917.5
2017-Oct-17 01:30N 57°46' E 010°26'15417.4
2017-Oct-16 16:40N 55°58' E 007°06'318.6
2017-Oct-16 16:30N 55°55' E 007°03'918.6
2017-Oct-16 16:00N 55°47' E 006°55'918.6
2017-Oct-16 15:30N 55°39' E 006°46'1018.6
2017-Oct-16 14:59N 55°31' E 006°37'918.7
2017-Oct-16 14:30N 55°23' E 006°29'3418.6
2017-Oct-16 12:39N 54°54' E 005°58'318.3
2017-Oct-16 12:30N 54°51' E 005°55'918.5
2017-Oct-16 12:00N 54°43' E 005°47'918.7
2017-Oct-16 11:29N 54°35' E 005°38'918.6
2017-Oct-16 10:59N 54°27' E 005°29'918.6
2017-Oct-16 10:30N 54°20' E 005°21'1018.6
2017-Oct-16 10:00N 54°11' E 005°13'4118.8
2017-Oct-16 07:49N 53°33' E 004°49'618.6
2017-Oct-16 07:30N 53°28' E 004°44'1018.7
2017-Oct-16 06:57N 53°19' E 004°37'818.6
2017-Oct-16 06:30N 53°11' E 004°30'918.6
2017-Oct-16 06:00N 53°03' E 004°23'918.5
2017-Oct-16 05:30N 52°55' E 004°17'918.4
2017-Oct-16 05:00N 52°46' E 004°11'1018.4
2017-Oct-16 04:27N 52°38' E 004°02'818.3
2017-Oct-16 04:00N 52°30' E 003°55'918.6
2017-Oct-16 03:31N 52°21' E 003°53'918.4
2017-Oct-16 03:00N 52°12' E 003°54'918.6
2017-Oct-16 02:30N 52°03' E 003°54'612.8
2017-Oct-16 02:00N 51°60' E 004°03'815.2
2017-Oct-16 01:31N 51°56' E 004°13'510.1
2017-Oct-16 01:01N 51°54' E 004°21'3 5.4
2017-Oct-16 00:31N 51°53' E 004°25'0 0.0
2017-Oct-15 23:59N 51°53' E 004°25'0 0.0
2017-Oct-15 23:29N 51°53' E 004°25'0 0.0
2017-Oct-15 22:59N 51°53' E 004°25'0 0.0
2017-Oct-15 22:29N 51°53' E 004°25'0 0.0
2017-Oct-15 21:59N 51°53' E 004°25'0 0.0
2017-Oct-15 21:29N 51°53' E 004°25'0 0.0
2017-Oct-15 20:59N 51°53' E 004°25'0 0.0
2017-Oct-15 20:29N 51°53' E 004°25'0 0.0
2017-Oct-15 19:59N 51°53' E 004°25'0 0.0
2017-Oct-15 19:29N 51°53' E 004°25'0 0.0
2017-Oct-15 18:59N 51°53' E 004°25'0 0.0
2017-Oct-15 18:29N 51°53' E 004°25'0 0.0
2017-Oct-15 17:59N 51°53' E 004°25'0 0.6
2017-Oct-15 17:30N 51°53' E 004°25'0 0.3
2017-Oct-15 17:00N 51°53' E 004°24'0 0.0
2017-Oct-15 16:30N 51°53' E 004°24'0 0.0
2017-Oct-15 16:00N 51°53' E 004°24'0 0.0
2017-Oct-15 15:30N 51°53' E 004°24'0 0.0
2017-Oct-15 15:00N 51°53' E 004°24'0 0.0
2017-Oct-15 14:00N 51°53' E 004°24'0 0.0
2017-Oct-15 13:30N 51°53' E 004°24'0 0.0
2017-Oct-15 13:00N 51°53' E 004°24'0 0.0
2017-Oct-15 12:30N 51°53' E 004°24'0 0.0
2017-Oct-15 12:00N 51°53' E 004°24'0 0.0
2017-Oct-15 11:30N 51°53' E 004°24'0 0.0
2017-Oct-15 11:00N 51°53' E 004°24'0 0.0
2017-Oct-15 10:30N 51°53' E 004°24'0 0.0
2017-Oct-15 10:00N 51°53' E 004°24'0 0.0
2017-Oct-15 09:30N 51°53' E 004°24'0 0.5
2017-Oct-15 09:00N 51°53' E 004°24'4 7.2
2017-Oct-15 08:31N 51°54' E 004°19'713.5
2017-Oct-15 08:01N 51°57' E 004°10'715.0
2017-Oct-15 07:30N 52°00' E 003°58'815.5
2017-Oct-15 07:00N 52°01' E 003°46'918.8
2017-Oct-15 06:31N 52°06' E 003°33'1019.1
2017-Oct-15 06:00N 52°11' E 003°19'1019.5
2017-Oct-15 05:30N 52°17' E 003°07'1019.5
2017-Oct-15 05:00N 52°23' E 002°54'1119.7
2017-Oct-15 04:26N 52°29' E 002°39'920.3
2017-Oct-15 04:00N 52°34' E 002°27'1120.4
2017-Oct-15 03:29N 52°40' E 002°13'1020.7
2017-Oct-15 03:00N 52°46' E 001°59'1020.8
2017-Oct-15 02:30N 52°51' E 001°45'1020.6
2017-Oct-15 02:00N 52°59' E 001°33'1020.3
2017-Oct-15 01:30N 53°07' E 001°23'1019.9
2017-Oct-15 01:00N 53°15' E 001°13'3019.9
2017-Oct-14 23:30N 53°41' E 000°48'2120.1
2017-Oct-14 22:27N 53°56' E 000°24'919.9
2017-Oct-14 22:01N 54°03' E 000°14'1020.0
2017-Oct-14 21:31N 54°10' E 000°03'1019.8
2017-Oct-14 21:00N 54°18' W 000°09'1019.4
2017-Oct-14 20:31N 54°25' W 000°20'3118.3
2017-Oct-14 18:48N 54°40' W 001°07'2 0.1
2017-Oct-14 04:46N 54°42' W 001°06'415.1
2017-Oct-14 04:30N 54°45' W 001°03'4 8.6
2017-Oct-14 04:00N 54°49' W 001°00'4 8.1
2017-Oct-14 03:30N 54°53' W 000°58'714.4
2017-Oct-14 03:00N 54°53' W 000°46'714.3
2017-Oct-14 02:30N 54°52' W 000°33'29116.1
2017-Oct-13 08:23N 56°60' E 007°14'817.7
2017-Oct-13 07:55N 57°03' E 007°28'717.7
2017-Oct-13 07:30N 57°06' E 007°41'10217.1
2017-Oct-13 01:34N 57°48' E 010°33'115.4
2017-Oct-13 01:29N 57°48' E 010°35'715.3
2017-Oct-13 01:00N 57°46' E 010°49'917.2
2017-Oct-13 00:30N 57°41' E 011°01'917.3
2017-Oct-13 00:00N 57°35' E 011°13'917.1
2017-Oct-12 23:30N 57°30' E 011°25'816.9
2017-Oct-12 23:00N 57°22' E 011°31'816.9
2017-Oct-12 22:30N 57°14' E 011°37'816.6
2017-Oct-12 22:00N 57°06' E 011°41'5415.8
2017-Oct-12 18:34N 56°17' E 012°24'115.6
2017-Oct-12 18:30N 56°16' E 012°25'816.8
2017-Oct-12 18:00N 56°09' E 012°30'815.9
2017-Oct-12 17:30N 56°03' E 012°40'815.0
2017-Oct-12 17:00N 55°56' E 012°44'816.9
2017-Oct-12 16:30N 55°47' E 012°43'714.3
2017-Oct-12 16:00N 55°40' E 012°42'4 8.1
2017-Oct-12 15:30N 55°36' E 012°42'3 7.0
2017-Oct-12 15:00N 55°33' E 012°42'611.4
2017-Oct-12 14:30N 55°27' E 012°42'713.7
2017-Oct-12 14:00N 55°20' E 012°39'713.7
2017-Oct-12 13:31N 55°16' E 012°49'816.2
2017-Oct-12 13:00N 55°15' E 013°03'917.4
2017-Oct-12 12:30N 55°15' E 013°19'3017.5
2017-Oct-12 10:47N 55°13' E 014°12'516.3
2017-Oct-12 10:30N 55°16' E 014°18'1017.7
2017-Oct-12 09:57N 55°23' E 014°30'917.9
2017-Oct-12 09:26N 55°28' E 014°43'817.6
2017-Oct-12 09:00N 55°32' E 014°54'917.9
2017-Oct-12 08:30N 55°37' E 015°08'917.9
2017-Oct-12 08:01N 55°41' E 015°22'917.8
2017-Oct-12 07:31N 55°45' E 015°36'917.9
2017-Oct-12 07:01N 55°50' E 015°50'918.3
2017-Oct-12 06:31N 55°54' E 016°04'918.7
2017-Oct-12 06:01N 55°59' E 016°18'918.9
2017-Oct-12 05:31N 56°04' E 016°33'918.7
2017-Oct-12 05:00N 56°08' E 016°47'283 7.5
2017-Oct-10 15:19N 59°33' E 022°55'619.2
2017-Oct-10 15:00N 59°35' E 023°06'2019.6
2017-Oct-10 14:01N 59°41' E 023°43'1019.5
2017-Oct-10 13:30N 59°44' E 024°02'1019.6
2017-Oct-10 13:01N 59°47' E 024°20'1019.6
2017-Oct-10 12:30N 59°51' E 024°38'1019.5
2017-Oct-10 11:59N 59°55' E 024°56'2 0.1
2017-Oct-09 20:53N 59°55' E 024°60'717.8
2017-Oct-09 20:31N 59°50' E 024°51'917.8
2017-Oct-09 20:01N 59°45' E 024°37'917.9
2017-Oct-09 19:31N 59°42' E 024°20'918.1
2017-Oct-09 19:00N 59°39' E 024°03'918.2
2017-Oct-09 18:30N 59°36' E 023°46'917.8
2017-Oct-09 18:00N 59°33' E 023°29'917.6
2017-Oct-09 17:30N 59°31' E 023°13'29917.1
2017-Oct-09 00:04N 55°59' E 016°38'117.6
2017-Oct-09 00:00N 55°58' E 016°36'917.7
2017-Oct-08 23:30N 55°54' E 016°23'917.8
2017-Oct-08 23:00N 55°50' E 016°08'918.0
2017-Oct-08 22:30N 55°46' E 015°54'918.1
2017-Oct-08 22:00N 55°42' E 015°39'918.0
2017-Oct-08 21:30N 55°38' E 015°25'918.1
2017-Oct-08 21:00N 55°34' E 015°11'918.4
2017-Oct-08 20:30N 55°29' E 014°57'918.5
2017-Oct-08 20:00N 55°24' E 014°43'1018.4
2017-Oct-08 19:29N 55°17' E 014°32'918.3
2017-Oct-08 19:00N 55°10' E 014°22'918.3
2017-Oct-08 18:30N 55°04' E 014°11'6318.3
2017-Oct-08 15:02N 54°39' E 012°29'118.5
2017-Oct-08 15:00N 54°39' E 012°29'917.7
2017-Oct-08 14:30N 54°33' E 012°17'918.1
2017-Oct-08 14:00N 54°25' E 012°10'2418.6
2017-Oct-08 12:43N 54°29' E 011°30'519.6
2017-Oct-08 12:29N 54°31' E 011°23'919.3
2017-Oct-08 12:00N 54°35' E 011°08'919.0
2017-Oct-08 11:30N 54°34' E 010°52'918.7
2017-Oct-08 11:00N 54°33' E 010°36'816.2
2017-Oct-08 10:30N 54°30' E 010°23'20 2.1
2017-Oct-08 01:05N 54°22' E 009°51'1 6.4
2017-Oct-08 01:00N 54°22' E 009°50'3 6.4
2017-Oct-08 00:30N 54°21' E 009°46'3 6.2
2017-Oct-08 00:00N 54°18' E 009°42'3 6.2
2017-Oct-07 23:30N 54°17' E 009°38'3 5.6
2017-Oct-07 23:00N 54°14' E 009°36'3 6.4
2017-Oct-07 22:30N 54°12' E 009°33'3 6.8
2017-Oct-07 22:00N 54°10' E 009°27'3 6.8
2017-Oct-07 21:30N 54°09' E 009°22'3 6.0
2017-Oct-07 21:00N 54°06' E 009°20'3 6.5
2017-Oct-07 20:30N 54°03' E 009°18'2 3.8
2017-Oct-07 20:00N 54°01' E 009°18'3 6.7
2017-Oct-07 19:30N 53°58' E 009°16'4 7.0
2017-Oct-07 19:00N 53°55' E 009°12'3 5.5
2017-Oct-07 18:30N 53°54' E 009°09'0 0.1
2017-Oct-07 18:00N 53°54' E 009°09'1 2.8
2017-Oct-07 17:30N 53°53' E 009°06'1 2.1
2017-Oct-07 17:00N 53°53' E 009°08'1 1.7
2017-Oct-07 16:30N 53°53' E 009°10'3 5.7
2017-Oct-07 16:00N 53°52' E 009°05'510.5
2017-Oct-07 15:30N 53°51' E 008°57'713.2
2017-Oct-07 15:00N 53°51' E 008°45'714.4
2017-Oct-07 14:30N 53°57' E 008°38'816.4
2017-Oct-07 14:01N 53°59' E 008°25'814.8
2017-Oct-07 13:30N 53°60' E 008°12'  
Track history (hours):
 
Tides and Currents Weather Stations Pressure Air Temp Water Temp Dewpoint Dewpoint Depression Visibility Wind Speed Wind Dir Waves Ship Positions

Containerships 6

Last reported at 2017-Oct-17 13:00 UTC. Time now 2017-Oct-17 13:27 UTC.
Position N 55°16' E 012°47'.

Length 155 m; beam 21.8 m; draft 8.9 m.

Type: Ship (hazmat cat A). MMSI: 211315096.

Date/timePositionNaut miles runAvg speedWind from/ knotsBaromVisibWave heightAir tempDewpointWater temp
2017-Oct-17 13:00N 55°16' E 012°47'713.7
2017-Oct-17 12:30N 55°21' E 012°38'714.1
2017-Oct-17 12:00N 55°28' E 012°40'611.3
2017-Oct-17 11:30N 55°33' E 012°42'4 8.2
2017-Oct-17 11:00N 55°37' E 012°42'510.2
2017-Oct-17 10:30N 55°42' E 012°41'815.4
2017-Oct-17 10:00N 55°50' E 012°41'917.2
2017-Oct-17 09:30N 55°59' E 012°40'713.8
2017-Oct-17 09:01N 56°05' E 012°35'816.9
2017-Oct-17 08:31N 56°10' E 012°23'2817.2
2017-Oct-17 06:55N 56°34' E 011°57'818.1
2017-Oct-17 06:29N 56°41' E 011°54'2218.7
2017-Oct-17 05:18N 57°02' E 011°41'1917.3
2017-Oct-17 04:14N 57°19' E 011°29'416.9
2017-Oct-17 04:00N 57°23' E 011°26'816.5
2017-Oct-17 03:30N 57°30' E 011°18'917.1
2017-Oct-17 03:00N 57°36' E 011°06'917.0
2017-Oct-17 02:28N 57°42' E 010°54'816.6
2017-Oct-17 01:59N 57°47' E 010°42'917.5
2017-Oct-17 01:30N 57°46' E 010°26'15417.4
2017-Oct-16 16:40N 55°58' E 007°06'318.6
2017-Oct-16 16:30N 55°55' E 007°03'918.6
2017-Oct-16 16:00N 55°47' E 006°55'918.6
2017-Oct-16 15:30N 55°39' E 006°46'1018.6
2017-Oct-16 14:59N 55°31' E 006°37'918.7
2017-Oct-16 14:30N 55°23' E 006°29'3418.6
2017-Oct-16 12:39N 54°54' E 005°58'318.3
2017-Oct-16 12:30N 54°51' E 005°55'918.5
2017-Oct-16 12:00N 54°43' E 005°47'918.7
2017-Oct-16 11:29N 54°35' E 005°38'918.6
2017-Oct-16 10:59N 54°27' E 005°29'918.6
2017-Oct-16 10:30N 54°20' E 005°21'1018.6
2017-Oct-16 10:00N 54°11' E 005°13'4118.8
2017-Oct-16 07:49N 53°33' E 004°49'618.6
2017-Oct-16 07:30N 53°28' E 004°44'1018.7
2017-Oct-16 06:57N 53°19' E 004°37'818.6
2017-Oct-16 06:30N 53°11' E 004°30'918.6
2017-Oct-16 06:00N 53°03' E 004°23'918.5
2017-Oct-16 05:30N 52°55' E 004°17'918.4
2017-Oct-16 05:00N 52°46' E 004°11'1018.4
2017-Oct-16 04:27N 52°38' E 004°02'818.3
2017-Oct-16 04:00N 52°30' E 003°55'918.6
2017-Oct-16 03:31N 52°21' E 003°53'918.4
2017-Oct-16 03:00N 52°12' E 003°54'918.6
2017-Oct-16 02:30N 52°03' E 003°54'612.8
2017-Oct-16 02:00N 51°60' E 004°03'815.2
2017-Oct-16 01:31N 51°56' E 004°13'510.1
2017-Oct-16 01:01N 51°54' E 004°21'3 5.4
2017-Oct-16 00:31N 51°53' E 004°25'0 0.0
2017-Oct-15 23:59N 51°53' E 004°25'0 0.0
2017-Oct-15 23:29N 51°53' E 004°25'0 0.0
2017-Oct-15 22:59N 51°53' E 004°25'0 0.0
2017-Oct-15 22:29N 51°53' E 004°25'0 0.0
2017-Oct-15 21:59N 51°53' E 004°25'0 0.0
2017-Oct-15 21:29N 51°53' E 004°25'0 0.0
2017-Oct-15 20:59N 51°53' E 004°25'0 0.0
2017-Oct-15 20:29N 51°53' E 004°25'0 0.0
2017-Oct-15 19:59N 51°53' E 004°25'0 0.0
2017-Oct-15 19:29N 51°53' E 004°25'0 0.0
2017-Oct-15 18:59N 51°53' E 004°25'0 0.0
2017-Oct-15 18:29N 51°53' E 004°25'0 0.0
2017-Oct-15 17:59N 51°53' E 004°25'0 0.6
2017-Oct-15 17:30N 51°53' E 004°25'0 0.3
2017-Oct-15 17:00N 51°53' E 004°24'0 0.0
2017-Oct-15 16:30N 51°53' E 004°24'0 0.0
2017-Oct-15 16:00N 51°53' E 004°24'0 0.0
2017-Oct-15 15:30N 51°53' E 004°24'0 0.0
2017-Oct-15 15:00N 51°53' E 004°24'0 0.0
2017-Oct-15 14:00N 51°53' E 004°24'0 0.0
2017-Oct-15 13:30N 51°53' E 004°24'0 0.0
2017-Oct-15 13:00N 51°53' E 004°24'0 0.0
2017-Oct-15 12:30N 51°53' E 004°24'0 0.0
2017-Oct-15 12:00N 51°53' E 004°24'0 0.0
2017-Oct-15 11:30N 51°53' E 004°24'0 0.0
2017-Oct-15 11:00N 51°53' E 004°24'0 0.0
2017-Oct-15 10:30N 51°53' E 004°24'0 0.0
2017-Oct-15 10:00N 51°53' E 004°24'0 0.0
2017-Oct-15 09:30N 51°53' E 004°24'0 0.5
2017-Oct-15 09:00N 51°53' E 004°24'4 7.2
2017-Oct-15 08:31N 51°54' E 004°19'713.5
2017-Oct-15 08:01N 51°57' E 004°10'715.0
2017-Oct-15 07:30N 52°00' E 003°58'815.5
2017-Oct-15 07:00N 52°01' E 003°46'918.8
2017-Oct-15 06:31N 52°06' E 003°33'1019.1
2017-Oct-15 06:00N 52°11' E 003°19'1019.5
2017-Oct-15 05:30N 52°17' E 003°07'1019.5
2017-Oct-15 05:00N 52°23' E 002°54'1119.7
2017-Oct-15 04:26N 52°29' E 002°39'920.3
2017-Oct-15 04:00N 52°34' E 002°27'1120.4
2017-Oct-15 03:29N 52°40' E 002°13'1020.7
2017-Oct-15 03:00N 52°46' E 001°59'1020.8
2017-Oct-15 02:30N 52°51' E 001°45'1020.6
2017-Oct-15 02:00N 52°59' E 001°33'1020.3
2017-Oct-15 01:30N 53°07' E 001°23'1019.9
2017-Oct-15 01:00N 53°15' E 001°13'3019.9
2017-Oct-14 23:30N 53°41' E 000°48'2120.1
2017-Oct-14 22:27N 53°56' E 000°24'919.9
2017-Oct-14 22:01N 54°03' E 000°14'1020.0
2017-Oct-14 21:31N 54°10' E 000°03'1019.8
2017-Oct-14 21:00N 54°18' W 000°09'1019.4
2017-Oct-14 20:31N 54°25' W 000°20'3118.3
2017-Oct-14 18:48N 54°40' W 001°07'2 0.1
2017-Oct-14 04:46N 54°42' W 001°06'415.1
2017-Oct-14 04:30N 54°45' W 001°03'4 8.6
2017-Oct-14 04:00N 54°49' W 001°00'4 8.1
2017-Oct-14 03:30N 54°53' W 000°58'714.4
2017-Oct-14 03:00N 54°53' W 000°46'714.3
2017-Oct-14 02:30N 54°52' W 000°33'29116.1
2017-Oct-13 08:23N 56°60' E 007°14'817.7
2017-Oct-13 07:55N 57°03' E 007°28'717.7
2017-Oct-13 07:30N 57°06' E 007°41'10217.1
2017-Oct-13 01:34N 57°48' E 010°33'115.4
2017-Oct-13 01:29N 57°48' E 010°35'715.3
2017-Oct-13 01:00N 57°46' E 010°49'917.2
2017-Oct-13 00:30N 57°41' E 011°01'917.3
2017-Oct-13 00:00N 57°35' E 011°13'917.1
2017-Oct-12 23:30N 57°30' E 011°25'816.9
2017-Oct-12 23:00N 57°22' E 011°31'816.9
2017-Oct-12 22:30N 57°14' E 011°37'816.6
2017-Oct-12 22:00N 57°06' E 011°41'5415.8
2017-Oct-12 18:34N 56°17' E 012°24'115.6
2017-Oct-12 18:30N 56°16' E 012°25'816.8
2017-Oct-12 18:00N 56°09' E 012°30'815.9
2017-Oct-12 17:30N 56°03' E 012°40'815.0
2017-Oct-12 17:00N 55°56' E 012°44'816.9
2017-Oct-12 16:30N 55°47' E 012°43'714.3
2017-Oct-12 16:00N 55°40' E 012°42'4 8.1
2017-Oct-12 15:30N 55°36' E 012°42'3 7.0
2017-Oct-12 15:00N 55°33' E 012°42'611.4
2017-Oct-12 14:30N 55°27' E 012°42'713.7
2017-Oct-12 14:00N 55°20' E 012°39'713.7
2017-Oct-12 13:31N 55°16' E 012°49'816.2
2017-Oct-12 13:00N 55°15' E 013°03'917.4
2017-Oct-12 12:30N 55°15' E 013°19'3017.5
2017-Oct-12 10:47N 55°13' E 014°12'516.3
2017-Oct-12 10:30N 55°16' E 014°18'1017.7
2017-Oct-12 09:57N 55°23' E 014°30'917.9
2017-Oct-12 09:26N 55°28' E 014°43'817.6
2017-Oct-12 09:00N 55°32' E 014°54'917.9
2017-Oct-12 08:30N 55°37' E 015°08'917.9
2017-Oct-12 08:01N 55°41' E 015°22'917.8
2017-Oct-12 07:31N 55°45' E 015°36'917.9
2017-Oct-12 07:01N 55°50' E 015°50'918.3
2017-Oct-12 06:31N 55°54' E 016°04'918.7
2017-Oct-12 06:01N 55°59' E 016°18'918.9
2017-Oct-12 05:31N 56°04' E 016°33'918.7
2017-Oct-12 05:00N 56°08' E 016°47'283 7.5
2017-Oct-10 15:19N 59°33' E 022°55'619.2
2017-Oct-10 15:00N 59°35' E 023°06'2019.6
2017-Oct-10 14:01N 59°41' E 023°43'1019.5
2017-Oct-10 13:30N 59°44' E 024°02'1019.6
2017-Oct-10 13:01N 59°47' E 024°20'1019.6
2017-Oct-10 12:30N 59°51' E 024°38'1019.5
2017-Oct-10 11:59N 59°55' E 024°56'2 0.1
2017-Oct-09 20:53N 59°55' E 024°60'717.8
2017-Oct-09 20:31N 59°50' E 024°51'917.8
2017-Oct-09 20:01N 59°45' E 024°37'917.9
2017-Oct-09 19:31N 59°42' E 024°20'918.1
2017-Oct-09 19:00N 59°39' E 024°03'918.2
2017-Oct-09 18:30N 59°36' E 023°46'917.8
2017-Oct-09 18:00N 59°33' E 023°29'917.6
2017-Oct-09 17:30N 59°31' E 023°13'29917.1
2017-Oct-09 00:04N 55°59' E 016°38'117.6
2017-Oct-09 00:00N 55°58' E 016°36'917.7
2017-Oct-08 23:30N 55°54' E 016°23'917.8
2017-Oct-08 23:00N 55°50' E 016°08'918.0
2017-Oct-08 22:30N 55°46' E 015°54'918.1
2017-Oct-08 22:00N 55°42' E 015°39'918.0
2017-Oct-08 21:30N 55°38' E 015°25'918.1
2017-Oct-08 21:00N 55°34' E 015°11'918.4
2017-Oct-08 20:30N 55°29' E 014°57'918.5
2017-Oct-08 20:00N 55°24' E 014°43'1018.4
2017-Oct-08 19:29N 55°17' E 014°32'918.3
2017-Oct-08 19:00N 55°10' E 014°22'918.3
2017-Oct-08 18:30N 55°04' E 014°11'6318.3
2017-Oct-08 15:02N 54°39' E 012°29'118.5
2017-Oct-08 15:00N 54°39' E 012°29'917.7
2017-Oct-08 14:30N 54°33' E 012°17'918.1
2017-Oct-08 14:00N 54°25' E 012°10'2418.6
2017-Oct-08 12:43N 54°29' E 011°30'519.6
2017-Oct-08 12:29N 54°31' E 011°23'919.3
2017-Oct-08 12:00N 54°35' E 011°08'919.0
2017-Oct-08 11:30N 54°34' E 010°52'918.7
2017-Oct-08 11:00N 54°33' E 010°36'816.2
2017-Oct-08 10:30N 54°30' E 010°23'20 2.1
2017-Oct-08 01:05N 54°22' E 009°51'1 6.4
2017-Oct-08 01:00N 54°22' E 009°50'3 6.4
2017-Oct-08 00:30N 54°21' E 009°46'3 6.2
2017-Oct-08 00:00N 54°18' E 009°42'3 6.2
2017-Oct-07 23:30N 54°17' E 009°38'3 5.6
2017-Oct-07 23:00N 54°14' E 009°36'3 6.4
2017-Oct-07 22:30N 54°12' E 009°33'3 6.8
2017-Oct-07 22:00N 54°10' E 009°27'3 6.8
2017-Oct-07 21:30N 54°09' E 009°22'3 6.0
2017-Oct-07 21:00N 54°06' E 009°20'3 6.5
2017-Oct-07 20:30N 54°03' E 009°18'2 3.8
2017-Oct-07 20:00N 54°01' E 009°18'3 6.7
2017-Oct-07 19:30N 53°58' E 009°16'4 7.0
2017-Oct-07 19:00N 53°55' E 009°12'3 5.5
2017-Oct-07 18:30N 53°54' E 009°09'0 0.1
2017-Oct-07 18:00N 53°54' E 009°09'1 2.8
2017-Oct-07 17:30N 53°53' E 009°06'1 2.1
2017-Oct-07 17:00N 53°53' E 009°08'1 1.7
2017-Oct-07 16:30N 53°53' E 009°10'3 5.7
2017-Oct-07 16:00N 53°52' E 009°05'510.5
2017-Oct-07 15:30N 53°51' E 008°57'713.2
2017-Oct-07 15:00N 53°51' E 008°45'714.4
2017-Oct-07 14:30N 53°57' E 008°38'816.4
2017-Oct-07 14:01N 53°59' E 008°25'814.8
2017-Oct-07 13:30N 53°60' E 008°12'  

Dump ship's entire track history